createdAt,value
2019-04-26T00:00:53.250Z,13.00
2019-04-26T00:03:24.288Z,12.90
2019-04-26T00:05:53.616Z,12.90
2019-04-26T00:08:22.646Z,12.90
2019-04-26T00:11:09.619Z,12.80
2019-04-26T00:13:53.345Z,12.90
2019-04-26T00:16:24.097Z,12.80
2019-04-26T00:18:53.057Z,12.70
2019-04-26T00:21:22.671Z,12.60
2019-04-26T00:23:52.391Z,12.60
2019-04-26T00:26:22.059Z,12.50
2019-04-26T00:28:51.102Z,12.50
2019-04-26T00:31:20.048Z,12.40
2019-04-26T00:33:49.044Z,12.30
2019-04-26T00:36:18.699Z,12.40
2019-04-26T00:38:48.107Z,12.30
2019-04-26T00:41:18.477Z,12.30
2019-04-26T00:43:49.294Z,12.30
2019-04-26T00:46:20.887Z,12.40
2019-04-26T00:48:52.202Z,12.40
2019-04-26T00:51:22.100Z,12.40
2019-04-26T00:53:52.504Z,12.40
2019-04-26T00:56:22.600Z,12.40
2019-04-26T00:58:52.488Z,12.40
2019-04-26T01:01:22.976Z,12.40
2019-04-26T01:03:51.997Z,12.40
2019-04-26T01:06:22.984Z,12.40
2019-04-26T01:08:52.331Z,12.40
2019-04-26T01:11:21.860Z,12.40
2019-04-26T01:13:50.864Z,12.40
2019-04-26T01:16:20.215Z,12.40
2019-04-26T01:18:52.504Z,12.50
2019-04-26T01:21:24.752Z,12.50
2019-04-26T01:23:56.904Z,12.50
2019-04-26T01:26:31.744Z,12.50
2019-04-26T01:29:03.967Z,12.50
2019-04-26T01:31:36.008Z,12.60
2019-04-26T01:34:05.309Z,12.50
2019-04-26T01:36:36.952Z,12.50
2019-04-26T01:39:10.289Z,12.60
2019-04-26T01:41:53.185Z,12.60
2019-04-26T01:44:38.620Z,12.60
2019-04-26T01:47:07.595Z,12.50
2019-04-26T01:49:36.724Z,12.50
2019-04-26T01:52:09.142Z,12.60
2019-04-26T01:54:43.457Z,12.80
2019-04-26T01:57:14.394Z,12.80
2019-04-26T01:59:47.787Z,12.90
2019-04-26T02:02:27.777Z,12.90
2019-04-26T02:05:05.861Z,12.90
2019-04-26T02:07:38.543Z,12.70
2019-04-26T02:10:10.077Z,12.70
2019-04-26T02:12:42.069Z,12.70
2019-04-26T02:15:11.710Z,12.60
2019-04-26T02:17:41.920Z,12.60
2019-04-26T02:20:12.442Z,12.50
2019-04-26T02:22:59.662Z,12.50
2019-04-26T02:25:30.083Z,12.50
2019-04-26T02:27:59.679Z,12.40
2019-04-26T02:30:30.513Z,12.40
2019-04-26T02:32:59.548Z,12.40
2019-04-26T02:35:30.238Z,12.40
2019-04-26T02:37:59.357Z,12.40
2019-04-26T02:40:30.091Z,12.40
2019-04-26T02:42:59.356Z,12.30
2019-04-26T02:45:41.878Z,12.30
2019-04-26T02:48:21.945Z,12.30
2019-04-26T02:51:01.512Z,12.30
2019-04-26T02:53:42.192Z,12.30
2019-04-26T02:56:34.121Z,12.30
2019-04-26T02:59:11.779Z,12.30
2019-04-26T03:01:41.811Z,12.40
2019-04-26T03:04:11.084Z,12.40
2019-04-26T03:06:42.852Z,12.30
2019-04-26T03:09:14.751Z,12.20
2019-04-26T03:11:55.937Z,12.20
2019-04-26T03:14:27.686Z,12.20
2019-04-26T03:17:06.953Z,12.20
2019-04-26T03:19:58.668Z,12.10
2019-04-26T03:22:33.190Z,12.10
2019-04-26T03:25:02.684Z,12.10
2019-04-26T03:27:41.879Z,12.20
2019-04-26T03:30:22.751Z,12.20
2019-04-26T03:32:56.311Z,12.10
2019-04-26T03:35:55.352Z,12.10
2019-04-26T03:38:23.236Z,12.00
2019-04-26T03:41:14.806Z,12.00
2019-04-26T03:43:46.909Z,11.90
2019-04-26T03:46:35.689Z,11.90
2019-04-26T03:49:25.631Z,11.90
2019-04-26T03:52:21.866Z,11.90
2019-04-26T03:54:53.981Z,11.80
2019-04-26T03:57:59.587Z,11.80
2019-04-26T04:00:47.316Z,11.70
2019-04-26T04:03:43.475Z,11.70
2019-04-26T04:06:16.386Z,11.70
2019-04-26T04:08:48.536Z,11.70
2019-04-26T04:11:29.223Z,11.70
2019-04-26T04:14:07.028Z,11.70
2019-04-26T04:16:58.511Z,11.70
2019-04-26T04:19:56.281Z,11.70
2019-04-26T04:22:28.383Z,11.70
2019-04-26T04:25:06.445Z,11.80
2019-04-26T04:27:41.846Z,11.80
2019-04-26T04:30:17.742Z,11.80
2019-04-26T04:32:55.733Z,11.90
2019-04-26T04:35:28.042Z,11.90
2019-04-26T04:38:15.325Z,11.90
2019-04-26T04:41:08.708Z,11.90
2019-04-26T04:43:44.585Z,12.00
2019-04-26T04:46:49.654Z,12.00
2019-04-26T04:49:28.607Z,11.90
2019-04-26T04:52:33.518Z,11.90
2019-04-26T04:55:14.401Z,12.00
2019-04-26T04:57:58.393Z,11.90
2019-04-26T05:00:39.085Z,11.90
2019-04-26T05:03:33.077Z,12.00
2019-04-26T05:06:12.563Z,11.90
2019-04-26T05:09:11.781Z,11.90
2019-04-26T05:11:53.855Z,11.80
2019-04-26T05:14:31.762Z,11.80
2019-04-26T05:17:19.174Z,11.70
2019-04-26T05:20:24.378Z,11.70
2019-04-26T05:23:12.283Z,11.70
2019-04-26T05:26:30.965Z,11.80
2019-04-26T05:29:24.170Z,11.70
2019-04-26T05:32:11.156Z,11.60
2019-04-26T05:34:50.738Z,11.50
2019-04-26T05:37:42.880Z,11.40
2019-04-26T05:40:17.659Z,11.40
2019-04-26T05:43:18.556Z,11.60
2019-04-26T05:46:24.212Z,11.80
2019-04-26T05:49:21.689Z,12.00
2019-04-26T05:52:12.184Z,12.30
2019-04-26T05:55:00.261Z,12.50
2019-04-26T05:58:02.958Z,12.70
2019-04-26T06:00:56.091Z,12.70
2019-04-26T06:03:38.560Z,12.70
2019-04-26T06:06:15.196Z,12.60
2019-04-26T06:09:22.019Z,12.60
2019-04-26T06:12:01.566Z,12.60
2019-04-26T06:14:43.970Z,12.60
2019-04-26T06:17:45.030Z,12.50
2019-04-26T06:20:34.011Z,12.50
2019-04-26T06:23:33.324Z,12.50
2019-04-26T06:26:28.143Z,12.60
2019-04-26T06:29:09.030Z,12.60
2019-04-26T06:31:41.124Z,12.60
2019-04-26T06:34:16.089Z,12.60
2019-04-26T06:36:50.180Z,12.60
2019-04-26T06:39:23.870Z,12.60
2019-04-26T06:42:06.475Z,12.60
2019-04-26T06:44:52.239Z,12.70
2019-04-26T06:47:37.440Z,12.80
2019-04-26T06:50:29.413Z,12.90
2019-04-26T06:53:07.328Z,13.00
2019-04-26T06:55:41.078Z,13.10
2019-04-26T06:58:23.920Z,13.20
2019-04-26T07:01:29.188Z,13.50
2019-04-26T07:04:21.302Z,14.10
2019-04-26T07:07:11.616Z,14.60
2019-04-26T07:10:02.542Z,15.00
2019-04-26T07:12:54.394Z,15.30
2019-04-26T07:15:29.376Z,15.70
2019-04-26T07:18:16.271Z,16.40
2019-04-26T07:21:00.463Z,17.90
2019-04-26T07:24:03.845Z,18.30
2019-04-26T07:26:52.787Z,18.60
2019-04-26T07:29:41.455Z,20.00
2019-04-26T07:32:42.599Z,20.70
2019-04-26T07:35:47.994Z,20.20
2019-04-26T07:38:55.907Z,19.60
2019-04-26T07:42:03.309Z,20.00
2019-04-26T07:45:12.396Z,18.70
2019-04-26T07:48:14.642Z,18.20
2019-04-26T07:51:20.567Z,18.40
2019-04-26T07:54:09.172Z,19.30
2019-04-26T07:56:59.014Z,19.80
2019-04-26T07:59:37.031Z,19.90
2019-04-26T08:02:22.367Z,20.30
2019-04-26T08:05:20.505Z,20.90
2019-04-26T08:07:55.211Z,21.10
2019-04-26T08:10:27.567Z,21.20
2019-04-26T08:13:04.427Z,21.70
2019-04-26T08:15:40.283Z,21.30
2019-04-26T08:18:22.060Z,20.80
2019-04-26T08:21:02.565Z,20.70
2019-04-26T08:23:41.686Z,20.30
2019-04-26T08:26:09.136Z,20.10
2019-04-26T08:28:40.854Z,20.40
2019-04-26T08:31:15.540Z,20.50
2019-04-26T08:33:48.981Z,20.70
2019-04-26T08:36:23.266Z,21.10
2019-04-26T08:38:53.956Z,21.40
2019-04-26T08:41:24.796Z,22.30
2019-04-26T08:43:59.794Z,22.80
2019-04-26T08:46:44.742Z,23.30
2019-04-26T08:49:17.582Z,23.30
2019-04-26T08:51:48.138Z,23.40
2019-04-26T08:54:21.568Z,23.60
2019-04-26T08:56:53.689Z,23.50
2019-04-26T08:59:34.600Z,23.40
2019-04-26T09:02:08.325Z,23.90
2019-04-26T09:04:56.875Z,24.00
2019-04-26T09:07:36.281Z,23.70
2019-04-26T09:10:11.296Z,24.00
2019-04-26T09:12:42.511Z,24.20
2019-04-26T09:15:14.897Z,24.10
2019-04-26T09:17:43.972Z,24.30
2019-04-26T09:20:13.471Z,24.40
2019-04-26T09:22:44.148Z,25.10
2019-04-26T09:25:23.888Z,25.70
2019-04-26T09:27:54.627Z,25.70
2019-04-26T09:30:38.559Z,25.70
2019-04-26T09:33:09.951Z,25.60
2019-04-26T09:35:39.567Z,25.70
2019-04-26T09:38:08.533Z,26.00
2019-04-26T09:40:37.760Z,26.00
2019-04-26T09:43:15.251Z,26.00
2019-04-26T09:45:49.152Z,25.50
2019-04-26T09:48:20.214Z,25.20
2019-04-26T09:50:50.878Z,24.90
2019-04-26T09:53:20.134Z,24.20
2019-04-26T09:55:49.158Z,23.60
2019-04-26T09:58:18.397Z,23.60
2019-04-26T10:00:48.470Z,23.20
2019-04-26T10:03:18.223Z,22.80
2019-04-26T10:05:47.333Z,22.80
2019-04-26T10:08:16.456Z,22.90
2019-04-26T10:10:45.521Z,22.60
2019-04-26T10:13:28.272Z,22.20
2019-04-26T10:16:02.595Z,22.00
2019-04-26T10:18:29.782Z,22.10
2019-04-26T10:20:58.739Z,22.10
2019-04-26T10:23:27.732Z,21.90
2019-04-26T10:25:56.683Z,22.20
2019-04-26T10:28:25.830Z,22.40
2019-04-26T10:30:54.792Z,22.20
2019-04-26T10:33:24.020Z,21.60
2019-04-26T10:35:56.796Z,21.50
2019-04-26T10:38:25.387Z,21.50
2019-04-26T10:40:54.604Z,21.30
2019-04-26T10:43:23.558Z,21.20
2019-04-26T10:45:54.035Z,21.30
2019-04-26T10:48:23.386Z,21.90
2019-04-26T10:50:52.641Z,22.80
2019-04-26T10:53:30.257Z,23.60
2019-04-26T10:56:14.531Z,24.10
2019-04-26T10:58:45.259Z,24.60
2019-04-26T11:01:16.085Z,24.90
2019-04-26T11:03:45.395Z,25.30
2019-04-26T11:06:14.516Z,25.50
2019-04-26T11:08:43.621Z,25.50
2019-04-26T11:11:12.616Z,25.60
2019-04-26T11:13:41.572Z,25.60
2019-04-26T11:16:11.016Z,25.50
2019-04-26T11:18:40.077Z,25.60
2019-04-26T11:21:09.096Z,25.90
2019-04-26T11:23:41.175Z,26.00
2019-04-26T11:26:08.878Z,26.10
2019-04-26T11:28:37.834Z,26.20
2019-04-26T11:31:06.844Z,26.30
2019-04-26T11:33:44.727Z,26.10
2019-04-26T11:36:07.378Z,25.80
2019-04-26T11:38:37.727Z,25.40
2019-04-26T11:41:07.096Z,25.30
2019-04-26T11:43:36.283Z,25.10
2019-04-26T11:46:06.146Z,25.40
2019-04-26T11:48:35.122Z,25.60
2019-04-26T11:51:04.184Z,25.20
2019-04-26T11:53:33.466Z,24.90
2019-04-26T11:56:04.488Z,24.80
2019-04-26T11:58:33.482Z,24.80
2019-04-26T12:01:04.156Z,24.00
2019-04-26T12:03:33.153Z,23.40
2019-04-26T12:06:09.652Z,23.10
2019-04-26T12:08:55.313Z,22.80
2019-04-26T12:11:31.573Z,22.50
2019-04-26T12:13:59.284Z,22.90
2019-04-26T12:16:26.004Z,22.90
2019-04-26T12:18:55.039Z,23.30
2019-04-26T12:21:24.169Z,23.60
2019-04-26T12:23:55.456Z,24.30
2019-04-26T12:26:23.947Z,24.10
2019-04-26T12:28:52.926Z,23.60
2019-04-26T12:31:22.310Z,23.30
2019-04-26T12:33:51.711Z,23.50
2019-04-26T12:36:20.680Z,23.90
2019-04-26T12:38:49.791Z,24.30
2019-04-26T12:41:25.232Z,24.30
2019-04-26T12:43:49.838Z,24.00
2019-04-26T12:46:31.852Z,23.60
2019-04-26T12:49:00.428Z,23.10
2019-04-26T12:51:29.452Z,22.90
2019-04-26T12:53:58.819Z,23.20
2019-04-26T12:56:31.295Z,23.10
2019-04-26T12:58:58.449Z,23.00
2019-04-26T13:01:27.483Z,22.90
2019-04-26T13:04:06.632Z,22.80
2019-04-26T13:06:50.515Z,22.50
2019-04-26T13:09:21.815Z,22.20
2019-04-26T13:11:59.177Z,22.40
2019-04-26T13:14:45.895Z,22.70
2019-04-26T13:17:16.506Z,23.40
2019-04-26T13:19:45.506Z,24.20
2019-04-26T13:22:14.472Z,24.30
2019-04-26T13:24:43.419Z,24.30
2019-04-26T13:27:12.449Z,24.10
2019-04-26T13:29:41.420Z,24.20
2019-04-26T13:32:10.671Z,24.10
2019-04-26T13:34:39.643Z,23.80
2019-04-26T13:37:08.586Z,23.30
2019-04-26T13:39:37.957Z,23.20
2019-04-26T13:42:09.602Z,23.00
2019-04-26T13:44:56.441Z,22.70
2019-04-26T13:47:33.218Z,22.70
2019-04-26T13:50:09.438Z,22.50
2019-04-26T13:52:38.464Z,22.70
2019-04-26T13:55:07.602Z,23.00
2019-04-26T13:57:40.317Z,23.10
2019-04-26T14:00:11.697Z,22.70
2019-04-26T14:02:40.785Z,22.30
2019-04-26T14:05:11.062Z,21.90
2019-04-26T14:07:40.575Z,21.80
2019-04-26T14:10:09.973Z,21.90
2019-04-26T14:12:39.181Z,22.30
2019-04-26T14:15:10.093Z,22.70
2019-04-26T14:17:39.310Z,22.90
2019-04-26T14:20:08.743Z,22.80
2019-04-26T14:22:40.974Z,22.40
2019-04-26T14:25:11.862Z,22.20
2019-04-26T14:27:45.410Z,22.00
2019-04-26T14:30:15.885Z,22.20
2019-04-26T14:32:44.913Z,22.50
2019-04-26T14:35:15.611Z,22.70
2019-04-26T14:37:45.428Z,22.80
2019-04-26T14:40:17.728Z,22.90
2019-04-26T14:42:48.463Z,23.00
2019-04-26T14:45:23.817Z,23.00
2019-04-26T14:47:47.960Z,23.10
2019-04-26T14:50:17.107Z,22.90
2019-04-26T14:52:46.132Z,22.70
2019-04-26T14:55:16.457Z,22.60
2019-04-26T14:57:46.813Z,22.30
2019-04-26T15:00:20.745Z,22.00
2019-04-26T15:02:57.784Z,21.90
2019-04-26T15:05:33.225Z,21.80
2019-04-26T15:08:03.872Z,21.80
2019-04-26T15:10:43.856Z,21.70
2019-04-26T15:13:17.142Z,21.70
2019-04-26T15:15:37.296Z,21.60
2019-04-26T15:18:06.330Z,21.40
2019-04-26T15:20:35.418Z,21.30
2019-04-26T15:23:04.471Z,21.30
2019-04-26T15:25:33.629Z,21.40
2019-04-26T15:28:06.782Z,21.50
2019-04-26T15:30:43.053Z,21.60
2019-04-26T15:33:08.638Z,21.60
2019-04-26T15:35:52.139Z,21.70
2019-04-26T15:38:21.832Z,21.60
2019-04-26T15:40:53.414Z,21.60
2019-04-26T15:43:36.195Z,21.50
2019-04-26T15:46:13.344Z,21.60
2019-04-26T15:48:50.404Z,21.60
2019-04-26T15:51:20.147Z,21.50
2019-04-26T15:53:49.775Z,21.20
2019-04-26T15:56:19.183Z,21.10
2019-04-26T15:58:49.187Z,20.90
2019-04-26T16:01:18.371Z,20.80
2019-04-26T16:03:47.525Z,20.80
2019-04-26T16:06:16.533Z,20.80
2019-04-26T16:08:45.474Z,20.90
2019-04-26T16:11:14.577Z,20.90
2019-04-26T16:13:45.175Z,20.70
2019-04-26T16:16:16.472Z,20.50
2019-04-26T16:18:49.863Z,20.60
2019-04-26T16:21:17.984Z,20.50
2019-04-26T16:23:50.947Z,20.40
2019-04-26T16:26:17.070Z,20.20
2019-04-26T16:29:06.157Z,20.10
2019-04-26T16:31:36.752Z,20.10
2019-04-26T16:34:11.599Z,20.10
2019-04-26T16:36:45.031Z,20.20
2019-04-26T16:39:13.849Z,20.20
2019-04-26T16:41:42.985Z,20.20
2019-04-26T16:44:13.082Z,20.20
2019-04-26T16:46:43.892Z,20.10
2019-04-26T16:49:14.113Z,20.00
2019-04-26T16:51:43.702Z,20.10
2019-04-26T16:54:20.740Z,20.10
2019-04-26T16:56:44.052Z,20.10
2019-04-26T16:59:14.228Z,20.10
2019-04-26T17:01:47.267Z,20.10
2019-04-26T17:04:19.924Z,20.10
2019-04-26T17:06:46.392Z,20.10
2019-04-26T17:09:15.875Z,20.10
2019-04-26T17:11:44.840Z,20.10
2019-04-26T17:14:13.807Z,20.10
2019-04-26T17:16:44.466Z,20.10
2019-04-26T17:19:13.847Z,20.10
2019-04-26T17:21:44.654Z,20.10
2019-04-26T17:24:27.772Z,20.20
2019-04-26T17:27:09.859Z,20.10
2019-04-26T17:29:38.483Z,20.10
2019-04-26T17:32:09.018Z,20.00
2019-04-26T17:34:40.546Z,19.90
2019-04-26T17:37:12.781Z,19.80
2019-04-26T17:39:40.886Z,19.80
2019-04-26T17:42:10.558Z,19.80
2019-04-26T17:44:41.262Z,19.70
2019-04-26T17:47:10.698Z,19.70
2019-04-26T17:49:42.296Z,19.70
2019-04-26T17:52:11.632Z,19.60
2019-04-26T17:54:47.039Z,19.50
2019-04-26T17:57:14.309Z,19.40
2019-04-26T17:59:47.663Z,19.30
2019-04-26T18:02:25.874Z,19.10
2019-04-26T18:04:43.791Z,19.10
2019-04-26T18:07:36.257Z,19.00
2019-04-26T18:09:46.612Z,19.00
2019-04-26T18:12:14.091Z,18.90
2019-04-26T18:14:43.394Z,18.80
2019-04-26T18:17:25.993Z,18.80
2019-04-26T18:20:05.175Z,18.70
2019-04-26T18:22:36.174Z,18.70
2019-04-26T18:25:11.117Z,18.70
2019-04-26T18:27:38.711Z,18.60
2019-04-26T18:30:11.675Z,18.50
2019-04-26T18:32:42.932Z,18.50
2019-04-26T18:35:15.198Z,18.40
2019-04-26T18:37:42.599Z,18.40
2019-04-26T18:40:11.929Z,18.40
2019-04-26T18:42:41.846Z,18.30
2019-04-26T18:45:11.745Z,18.30
2019-04-26T18:47:45.370Z,18.20
2019-04-26T18:50:13.931Z,18.10
2019-04-26T18:52:50.636Z,18.20
2019-04-26T18:55:28.546Z,18.10
2019-04-26T18:57:55.173Z,18.00
2019-04-26T19:00:28.981Z,17.90
2019-04-26T19:02:59.998Z,17.80
2019-04-26T19:05:30.155Z,17.70
2019-04-26T19:07:59.653Z,17.70
2019-04-26T19:10:29.279Z,17.60
2019-04-26T19:13:01.467Z,17.50
2019-04-26T19:15:42.028Z,17.60
2019-04-26T19:18:15.179Z,17.50
2019-04-26T19:20:48.510Z,17.50
2019-04-26T19:23:17.542Z,17.60
2019-04-26T19:25:46.498Z,17.50
2019-04-26T19:28:15.901Z,17.50
2019-04-26T19:30:49.558Z,17.50
2019-04-26T19:33:16.885Z,17.50
2019-04-26T19:35:47.588Z,17.40
2019-04-26T19:38:16.690Z,17.30
2019-04-26T19:40:47.800Z,17.30
2019-04-26T19:43:28.251Z,17.20
2019-04-26T19:45:48.850Z,17.10
2019-04-26T19:48:26.104Z,17.20
2019-04-26T19:50:56.798Z,17.20
2019-04-26T19:53:30.152Z,17.10
2019-04-26T19:56:06.863Z,17.10
2019-04-26T19:58:45.877Z,17.10
2019-04-26T20:01:16.469Z,17.00
2019-04-26T20:03:47.387Z,17.00
2019-04-26T20:06:18.791Z,17.00
2019-04-26T20:08:49.378Z,16.70
2019-04-26T20:11:18.699Z,16.50
2019-04-26T20:13:51.874Z,16.40
2019-04-26T20:16:18.139Z,16.30
2019-04-26T20:18:47.089Z,16.30
2019-04-26T20:21:16.040Z,16.30
2019-04-26T20:23:47.476Z,16.30
2019-04-26T20:26:15.663Z,16.20
2019-04-26T20:28:44.661Z,16.00
2019-04-26T20:31:15.338Z,15.80
2019-04-26T20:33:44.443Z,15.90
2019-04-26T20:36:13.422Z,15.80
2019-04-26T20:38:47.069Z,15.80
2019-04-26T20:41:14.819Z,15.60
2019-04-26T20:43:47.020Z,15.50
2019-04-26T20:46:15.630Z,15.40
2019-04-26T20:48:45.151Z,15.30
2019-04-26T20:51:14.117Z,15.20
2019-04-26T20:53:43.830Z,15.20
2019-04-26T20:56:18.175Z,15.10
2019-04-26T20:58:47.005Z,15.10
2019-04-26T21:01:15.406Z,15.00
2019-04-26T21:03:46.004Z,14.90
2019-04-26T21:06:15.221Z,14.80
2019-04-26T21:08:44.325Z,14.80
2019-04-26T21:11:13.808Z,14.90
2019-04-26T21:13:43.186Z,14.90
2019-04-26T21:16:15.286Z,14.90
2019-04-26T21:18:44.364Z,14.80
2019-04-26T21:21:16.019Z,14.80
2019-04-26T21:23:46.200Z,14.80
2019-04-26T21:26:16.901Z,14.70
2019-04-26T21:28:47.563Z,14.80
2019-04-26T21:31:18.169Z,14.80
2019-04-26T21:33:58.073Z,14.70
2019-04-26T21:36:36.218Z,14.90
2019-04-26T21:39:07.349Z,14.90
2019-04-26T21:41:40.428Z,15.00
2019-04-26T21:44:12.350Z,15.10
2019-04-26T21:46:40.055Z,15.20
2019-04-26T21:49:09.003Z,15.30
2019-04-26T21:51:38.354Z,15.40
2019-04-26T21:54:07.317Z,15.20
2019-04-26T21:56:36.274Z,15.00
2019-04-26T21:59:05.255Z,14.80
2019-04-26T22:01:34.361Z,14.80
2019-04-26T22:04:03.316Z,15.00
2019-04-26T22:06:33.416Z,15.20
2019-04-26T22:09:05.165Z,15.30
2019-04-26T22:11:34.832Z,15.40
2019-04-26T22:14:08.277Z,15.30
2019-04-26T22:16:41.907Z,15.30
2019-04-26T22:19:23.757Z,15.10
2019-04-26T22:21:59.345Z,15.00
2019-04-26T22:24:29.389Z,14.90
2019-04-26T22:26:58.366Z,14.70
2019-04-26T22:29:27.592Z,14.70
2019-04-26T22:31:56.661Z,14.70
2019-04-26T22:34:25.686Z,14.70
2019-04-26T22:36:54.635Z,14.60
2019-04-26T22:39:24.542Z,14.60
2019-04-26T22:41:53.801Z,14.70
2019-04-26T22:44:31.377Z,14.70
2019-04-26T22:47:08.333Z,14.60
2019-04-26T22:49:41.643Z,14.50
2019-04-26T22:52:11.120Z,14.30
2019-04-26T22:54:44.664Z,14.20
2019-04-26T22:57:13.119Z,14.10
2019-04-26T22:59:43.276Z,14.10
2019-04-26T23:02:13.684Z,14.20
2019-04-26T23:04:42.935Z,14.20
2019-04-26T23:07:13.551Z,14.20
2019-04-26T23:09:45.711Z,14.20
2019-04-26T23:12:16.411Z,14.10
2019-04-26T23:15:05.531Z,14.10
2019-04-26T23:17:52.625Z,14.10
2019-04-26T23:20:38.106Z,14.10
2019-04-26T23:23:08.681Z,14.10
2019-04-26T23:25:37.874Z,14.10
2019-04-26T23:28:06.834Z,14.10
2019-04-26T23:30:35.789Z,14.00
2019-04-26T23:33:04.820Z,14.00
2019-04-26T23:35:37.576Z,14.00
2019-04-26T23:38:06.102Z,14.00
2019-04-26T23:40:35.395Z,13.90
2019-04-26T23:43:04.413Z,13.90
2019-04-26T23:45:33.442Z,13.90
2019-04-26T23:48:03.547Z,13.90
2019-04-26T23:50:34.081Z,13.90
2019-04-26T23:53:03.265Z,13.90
2019-04-26T23:55:33.720Z,13.90
2019-04-26T23:58:06.456Z,14.00
